TGN weather

Latrobe Valley Airport
Morwell, Victoria, Australia

Public forecast

Using degrees Celsius for public forecast. Weather courtesy of forecast.io.

Closest aviation weather report (METAR) to Latrobe Valley Airport

Closest report is Melbourne Essendon Airport, 79.6 nm (147.4 km) WNW. Retrieved 2020/02/22 06:00 UTC (15 minutes ago):

YMEN 220600Z AUTO 19013KT 9999 // NCD 20/12 Q1021

Closest aviation forecast (TAF) to Latrobe Valley Airport

Closest forecast is Melbourne International Airport, 83.4 nm (154.5 km) WNW. Retrieved 2020/02/22 06:42 UTC (0 seconds ago):

TAF YMML 220515Z 2206/2312 17013KT CAVOK FM221100 27006KT 9999 FEW015 BECMG 2215/2217 33005KT 9999 BKN008 FM222100 35014KT 9999 FEW025 FM230400 32014KT CAVOK BECMG 2307/2309 18008KT CAVOK